Time;durP1;ratioP1;P1;durP2;ratioP2;P2;SDS_P1;SDS_P2;PMS_P1;PMS_P2;Temp;Humidity;BMP_temperature;BMP_pressure;BME280_temperature;BME280_humidity;BME280_pressure;Samples;Min_cycle;Max_cycle;Signal;HPM_P1;HPM_P2
2022/04/23 00:01:42;;;;;;;15.57;12.38;;;;;;;12.02;76.36;100722.19;5034608;28;20124;-81
2022/04/23 00:04:12;;;;;;;16.38;12.80;;;;;;;12.00;76.55;100744.75;5034587;28;20025;-81
2022/04/23 00:06:38;;;;;;;17.58;13.52;;;;;;;12.04;76.10;100748.44;5034031;28;20057;-81
2022/04/23 00:09:04;;;;;;;17.08;12.85;;;;;;;12.06;76.09;100742.44;5034830;28;20021;-81
2022/04/23 00:11:30;;;;;;;16.33;12.48;;;;;;;12.05;76.28;100745.00;5034294;28;20503;-81
2022/04/23 00:13:56;;;;;;;18.25;13.02;;;;;;;12.06;76.25;100749.41;5034475;28;20030;-81
2022/04/23 00:16:22;;;;;;;17.52;12.90;;;;;;;12.01;76.36;100754.44;5044172;28;20388;-81
2022/04/23 00:18:48;;;;;;;16.38;12.25;;;;;;;12.03;76.29;100744.94;5047317;28;20119;-81
2022/04/23 00:21:14;;;;;;;16.45;12.25;;;;;;;12.03;76.20;100747.53;5051682;28;20140;-81
2022/04/23 00:23:40;;;;;;;17.48;12.75;;;;;;;12.08;75.91;100739.91;5033976;28;20048;-81
2022/04/23 00:26:06;;;;;;;16.20;12.38;;;;;;;12.06;75.93;100744.16;5034250;28;20025;-81
2022/04/23 00:28:32;;;;;;;16.60;12.52;;;;;;;12.02;76.10;100748.34;5051869;28;20421;-80
2022/04/23 00:30:57;;;;;;;16.35;12.10;;;;;;;12.03;76.10;100747.53;5051798;28;20025;-82
2022/04/23 00:33:23;;;;;;;14.52;11.60;;;;;;;12.01;76.15;100723.03;5057178;28;20085;-81
2022/04/23 00:35:50;;;;;;;18.17;12.65;;;;;;;11.98;76.11;100720.25;5053639;28;20130;-81
2022/04/23 00:38:16;;;;;;;17.38;12.77;;;;;;;12.06;76.14;100713.66;5026157;28;20235;-81
2022/04/23 00:40:43;;;;;;;16.67;12.70;;;;;;;12.04;75.93;100696.09;5051788;28;20064;-81
2022/04/23 00:43:36;;;;;;;15.57;11.70;;;;;;;12.05;75.84;100693.56;5034031;28;20063;-81
2022/04/23 00:46:03;;;;;;;16.15;11.93;;;;;;;12.02;75.78;100688.16;5034347;28;20033;-81
2022/04/23 00:48:29;;;;;;;15.88;11.95;;;;;;;12.00;75.95;100700.28;5051862;28;20108;-81
2022/04/23 00:51:00;;;;;;;16.05;12.00;;;;;;;11.97;76.37;100690.56;5051437;28;20071;-81
2022/04/23 00:53:27;;;;;;;15.48;12.18;;;;;;;11.98;76.22;100689.75;5033247;28;20040;-81
2022/04/23 00:55:53;;;;;;;16.30;12.30;;;;;;;12.04;76.15;100691.75;5033098;28;20469;-81
2022/04/23 00:58:19;;;;;;;16.27;12.18;;;;;;;12.05;75.90;100683.09;5024091;28;20063;-82
2022/04/23 01:00:45;;;;;;;;;;;;;;;12.07;75.96;100657.00;5054300;28;20039;-81
2022/04/23 01:03:12;;;;;;;14.77;11.55;;;;;;;12.05;76.12;100658.63;5057675;28;19912;-81
2022/04/23 01:05:41;;;;;;;16.63;12.18;;;;;;;12.03;76.45;100645.47;5034159;28;20028;-82
2022/04/23 01:08:07;;;;;;;15.40;11.43;;;;;;;12.05;76.20;100659.53;5033883;28;20060;-81
2022/04/23 01:10:33;;;;;;;16.13;12.52;;;;;;;12.00;76.15;100661.94;5051601;28;20052;-80
2022/04/23 01:12:59;;;;;;;15.40;11.75;;;;;;;12.02;76.06;100661.97;5033855;28;20047;-81
2022/04/23 01:15:25;;;;;;;15.63;11.93;;;;;;;12.05;75.78;100662.16;5065564;28;20028;-82
2022/04/23 01:17:51;;;;;;;14.98;11.85;;;;;;;12.07;75.91;100657.88;5071359;28;20090;-81
2022/04/23 01:20:16;;;;;;;16.55;11.88;;;;;;;12.02;75.95;100633.19;5071571;28;20032;-82
2022/04/23 01:22:44;;;;;;;15.85;11.98;;;;;;;12.10;76.22;100636.19;5055813;28;20429;-81
2022/04/23 01:25:13;;;;;;;14.10;11.00;;;;;;;12.06;76.21;100636.84;5051025;28;20119;-81
2022/04/23 01:27:39;;;;;;;16.20;11.57;;;;;;;12.07;75.97;100639.56;5033300;28;20626;-81
2022/04/23 01:30:07;;;;;;;15.15;11.68;;;;;;;12.04;76.06;100641.13;5050664;28;20491;-82
2022/04/23 01:32:33;;;;;;;15.63;11.98;;;;;;;12.06;75.93;100655.19;5051025;28;20049;-81
2022/04/23 01:34:58;;;;;;;;;;;;;;;12.09;75.80;100637.03;5051513;28;20139;-81
2022/04/23 01:37:24;;;;;;;16.10;11.90;;;;;;;12.05;76.04;100632.47;5032995;28;20425;-81
2022/04/23 01:39:50;;;;;;;15.85;11.25;;;;;;;12.06;75.91;100639.47;5070660;28;20036;-81
2022/04/23 01:42:17;;;;;;;14.18;11.68;;;;;;;12.06;76.33;100639.47;5055763;28;20524;-82
2022/04/23 01:44:45;;;;;;;14.02;11.30;;;;;;;12.11;75.98;100631.03;5033349;28;20036;-81
2022/04/23 01:47:11;;;;;;;16.17;12.10;;;;;;;11.90;76.04;100596.91;5050644;28;20401;-80
2022/04/23 01:49:36;;;;;;;14.10;11.57;;;;;;;12.12;76.04;100630.19;5051098;28;20497;-81
2022/04/23 01:52:02;;;;;;;15.50;11.73;;;;;;;12.04;75.99;100621.06;5050483;28;20117;-81
2022/04/23 01:54:28;;;;;;;15.13;11.70;;;;;;;12.06;75.87;100631.63;5050740;28;20060;-81
2022/04/23 01:56:57;;;;;;;18.90;12.25;;;;;;;12.09;75.76;100622.19;5050503;28;20063;-81
2022/04/23 01:59:23;;;;;;;14.18;11.30;;;;;;;12.10;75.80;100623.97;5050595;28;20033;-81
2022/04/23 02:01:49;;;;;;;14.65;11.30;;;;;;;12.05;76.19;100635.97;5051206;28;20503;-81
2022/04/23 02:04:15;;;;;;;16.60;11.88;;;;;;;12.08;76.12;100645.69;5055087;28;20040;-79
2022/04/23 02:06:40;;;;;;;14.48;11.18;;;;;;;12.07;76.00;100646.53;5054741;28;20043;-82
2022/04/23 02:09:06;;;;;;;14.25;10.93;;;;;;;12.11;76.08;100653.69;5037003;28;20178;-82
2022/04/23 02:11:31;;;;;;;14.25;10.27;;;;;;;12.03;75.66;100621.91;5054613;28;20028;-81
2022/04/23 02:13:58;;;;;;;14.63;11.35;;;;;;;12.10;76.00;100628.31;5054160;28;20048;-81
2022/04/23 02:16:25;;;;;;;16.33;11.23;;;;;;;12.12;75.90;100616.19;5053934;28;20021;-81
2022/04/23 02:18:50;;;;;;;14.45;10.95;;;;;;;12.09;75.88;100606.50;5054205;28;20148;-81
2022/04/23 02:21:16;;;;;;;14.75;10.93;;;;;;;12.07;75.81;100605.53;5054456;28;20058;-81
2022/04/23 02:23:43;;;;;;;14.43;11.20;;;;;;;12.11;75.77;100601.34;5054385;28;20501;-81
2022/04/23 02:26:10;;;;;;;15.60;11.38;;;;;;;12.15;75.63;100593.69;5054206;28;20025;-80
2022/04/23 02:28:38;;;;;;;13.52;11.05;;;;;;;12.12;75.65;100585.69;5054306;28;20051;-81
2022/04/23 02:31:07;;;;;;;14.40;11.23;;;;;;;12.11;75.69;100593.50;5053665;28;20036;-81
2022/04/23 02:33:33;;;;;;;14.90;11.05;;;;;;;12.11;75.78;100597.00;5054070;28;20044;-81
2022/04/23 02:35:59;;;;;;;13.65;10.52;;;;;;;12.08;75.84;100581.13;5053767;28;20028;-81
2022/04/23 02:38:24;;;;;;;12.98;10.43;;;;;;;12.12;75.89;100603.13;5060026;28;20036;-81
2022/04/23 02:40:50;;;;;;;14.07;11.38;;;;;;;12.14;75.46;100604.97;5074531;28;20036;-81
2022/04/23 02:43:16;;;;;;;14.00;10.75;;;;;;;12.08;76.15;100601.19;5065989;28;20033;-81
2022/04/23 02:45:42;;;;;;;13.70;10.38;;;;;;;12.11;75.82;100614.44;5059578;28;20023;-81
2022/04/23 02:48:11;;;;;;;14.18;10.88;;;;;;;12.13;75.63;100618.00;5057610;28;20067;-81
2022/04/23 02:50:39;;;;;;;12.65;10.55;;;;;;;12.14;75.61;100611.94;5037469;28;20025;-81
2022/04/23 02:53:06;;;;;;;14.45;10.70;;;;;;;12.12;75.74;100618.81;5033973;28;20046;-81
2022/04/23 02:55:33;;;;;;;13.70;10.85;;;;;;;12.17;75.40;100620.84;5034704;28;20024;-81
2022/04/23 02:58:03;;;;;;;14.70;11.55;;;;;;;12.10;75.88;100613.50;5033674;28;20029;-81
2022/04/23 03:00:29;;;;;;;14.15;11.10;;;;;;;12.15;75.59;100616.31;5034903;28;20030;-81
2022/04/23 03:02:55;;;;;;;14.05;10.95;;;;;;;12.13;75.87;100624.13;5034220;28;20037;-81
2022/04/23 03:05:21;;;;;;;14.98;11.25;;;;;;;12.12;75.95;100616.19;5033264;28;20030;-81
2022/04/23 03:07:48;;;;;;;14.40;11.10;;;;;;;12.13;75.65;100620.63;5034701;28;20056;-81
2022/04/23 03:10:15;;;;;;;14.45;11.05;;;;;;;12.15;75.60;100612.00;5034145;28;20039;-81
2022/04/23 03:12:41;;;;;;;14.32;11.05;;;;;;;12.22;75.13;100600.09;5032758;28;20065;-81
2022/04/23 03:15:13;;;;;;;14.88;11.32;;;;;;;12.14;75.39;100570.94;5030901;28;20029;-81
2022/04/23 03:17:39;;;;;;;15.73;11.48;;;;;;;12.11;75.64;100568.19;5032884;28;20026;-81
2022/04/23 03:20:05;;;;;;;13.38;10.68;;;;;;;12.15;75.45;100579.69;5031747;28;20116;-81
2022/04/23 03:22:31;;;;;;;;;;;;;;;12.22;75.26;100603.59;5032338;28;20037;-81
2022/04/23 03:25:00;;;;;;;16.60;11.00;;;;;;;12.08;75.80;100603.81;5032391;28;19920;-81
2022/04/23 03:27:25;;;;;;;16.52;11.85;;;;;;;12.09;75.72;100611.72;5033366;28;20410;-81
2022/04/23 03:29:51;;;;;;;15.30;11.32;;;;;;;12.16;75.64;100616.41;5033586;28;20017;-81
2022/04/23 03:32:17;;;;;;;14.95;11.20;;;;;;;12.17;75.39;100631.31;5024590;28;20033;-81
2022/04/23 03:34:43;;;;;;;14.20;10.98;;;;;;;12.17;75.57;100601.59;5031987;28;20470;-81
2022/04/23 03:37:09;;;;;;;15.55;11.25;;;;;;;12.19;75.30;100607.78;5033150;28;20143;-81
2022/04/23 03:39:36;;;;;;;14.18;11.20;;;;;;;12.19;75.38;100600.84;5033509;28;20064;-81
2022/04/23 03:42:02;;;;;;;14.45;11.40;;;;;;;12.16;75.21;100585.00;5032620;28;20040;-81
2022/04/23 03:44:31;;;;;;;;;;;;;;;12.18;75.42;100601.66;5017286;28;20030;-82
2022/04/23 03:46:57;;;;;;;15.23;11.07;;;;;;;12.16;75.38;100608.56;5027722;28;20426;-81
2022/04/23 03:49:24;;;;;;;13.65;10.73;;;;;;;11.94;75.61;100571.78;5032601;28;20399;-80
2022/04/23 03:51:52;;;;;;;14.48;11.18;;;;;;;12.16;75.63;100605.03;5032998;28;20658;-81
2022/04/23 03:54:18;;;;;;;14.15;10.70;;;;;;;12.13;75.57;100620.63;5031076;28;20422;-80
2022/04/23 03:56:45;;;;;;;14.48;11.35;;;;;;;12.08;75.72;100612.53;5032204;28;20029;-80
2022/04/23 03:59:10;;;;;;;13.63;10.73;;;;;;;12.06;75.64;100606.34;5032192;28;20092;-81
2022/04/23 04:01:36;;;;;;;15.63;11.15;;;;;;;12.22;75.27;100619.31;5032722;28;20457;-81
2022/04/23 04:04:02;;;;;;;14.13;10.63;;;;;;;12.17;75.44;100628.69;5032947;28;20490;-81
2022/04/23 04:06:28;;;;;;;13.43;10.43;;;;;;;12.20;75.51;100630.53;5029014;28;20017;-82
2022/04/23 04:08:55;;;;;;;14.48;11.07;;;;;;;12.16;75.30;100629.50;5013609;28;20435;-81
2022/04/23 04:11:21;;;;;;;15.35;10.82;;;;;;;12.00;75.63;100598.22;5013237;28;20030;-81
2022/04/23 04:13:47;;;;;;;13.23;10.80;;;;;;;12.12;75.65;100622.31;5014845;28;20141;-81
2022/04/23 04:16:13;;;;;;;14.80;10.73;;;;;;;12.16;75.18;100628.59;5012561;28;20100;-81
2022/04/23 04:18:39;;;;;;;14.32;10.88;;;;;;;12.25;75.28;100626.38;5015927;28;20124;-81
2022/04/23 04:21:05;;;;;;;14.90;11.05;;;;;;;12.16;75.55;100626.88;5013191;28;20511;-81
2022/04/23 04:23:30;;;;;;;14.88;10.90;;;;;;;12.19;75.35;100632.28;5016731;28;20026;-81
2022/04/23 04:25:56;;;;;;;14.38;10.77;;;;;;;12.20;75.16;100633.16;5014981;28;20036;-82
2022/04/23 04:28:22;;;;;;;14.32;10.77;;;;;;;12.17;75.32;100626.06;5010630;28;20096;-82
2022/04/23 04:33:32;;;;;;;14.88;10.77;;;;;;;12.14;75.30;100596.22;5016030;28;20076;-82
2022/04/23 04:35:58;;;;;;;14.77;11.00;;;;;;;12.14;75.20;100610.19;5029810;28;20065;-82
2022/04/23 04:38:24;;;;;;;16.15;10.70;;;;;;;12.14;75.47;100609.31;5030472;28;20041;-81
2022/04/23 04:40:49;;;;;;;14.27;10.75;;;;;;;12.22;75.10;100608.81;5031758;28;20033;-81
2022/04/23 04:43:15;;;;;;;14.30;11.13;;;;;;;12.15;75.33;100593.69;5030118;28;20033;-81
2022/04/23 04:45:41;;;;;;;14.13;10.43;;;;;;;12.29;74.69;100601.25;5024774;28;20497;-81
2022/04/23 04:48:06;;;;;;;13.73;10.55;;;;;;;12.21;75.45;100620.13;5018583;28;20025;-81
2022/04/23 04:50:32;;;;;;;13.27;10.60;;;;;;;12.14;75.68;100610.19;5031016;28;20414;-81
2022/04/23 04:52:58;;;;;;;13.43;10.48;;;;;;;12.16;75.54;100611.16;5036774;28;20057;-81
2022/04/23 04:55:24;;;;;;;15.07;10.70;;;;;;;12.07;75.49;100595.06;5033174;28;20055;-81
2022/04/23 04:57:50;;;;;;;13.60;10.50;;;;;;;12.15;75.44;100608.47;5051124;28;20470;-81
2022/04/23 05:00:16;;;;;;;15.45;10.40;;;;;;;12.21;75.18;100608.75;5051308;28;20409;-82
2022/04/23 05:02:42;;;;;;;13.60;10.73;;;;;;;12.10;75.33;100592.56;5032989;28;20052;-81
2022/04/23 05:05:08;;;;;;;13.50;10.32;;;;;;;12.02;75.41;100588.69;5051703;28;20025;-81
2022/04/23 05:07:34;;;;;;;13.18;10.27;;;;;;;12.19;75.17;100613.03;5032963;28;20037;-82
2022/04/23 05:10:01;;;;;;;13.77;10.00;;;;;;;12.13;75.35;100597.97;5049287;28;20560;-81
2022/04/23 05:12:26;;;;;;;14.00;10.38;;;;;;;12.16;75.64;100595.47;5017715;28;20520;-81
2022/04/23 05:14:52;;;;;;;12.55;9.85;;;;;;;11.93;75.38;100559.50;5033256;28;20033;-81
2022/04/23 05:17:18;;;;;;;14.30;10.20;;;;;;;12.17;75.52;100594.66;5050833;28;20028;-82
2022/04/23 05:19:44;;;;;;;13.75;10.30;;;;;;;12.31;74.84;100590.00;5032386;28;20025;-82
2022/04/23 05:22:10;;;;;;;13.32;10.88;;;;;;;12.24;74.93;100587.06;5037852;28;20434;-80
2022/04/23 05:24:35;;;;;;;14.27;10.98;;;;;;;12.11;75.36;100573.44;5047049;28;20025;-81
2022/04/23 05:27:01;;;;;;;14.65;10.52;;;;;;;12.21;75.16;100572.09;5037527;28;20061;-81
2022/04/23 05:29:27;;;;;;;14.68;11.05;;;;;;;12.15;75.38;100574.44;5034337;28;20033;-81
2022/04/23 05:31:52;;;;;;;15.63;11.43;;;;;;;12.22;75.24;100582.66;5013949;28;20029;-81
2022/04/23 05:34:18;;;;;;;13.05;10.35;;;;;;;12.18;75.33;100579.84;5014804;28;20120;-81
2022/04/23 05:36:44;;;;;;;13.95;10.32;;;;;;;12.18;75.41;100575.47;5034541;28;20445;-82
2022/04/23 05:39:10;;;;;;;14.10;10.73;;;;;;;12.34;74.89;100578.78;5045985;28;20104;-81
2022/04/23 05:41:36;;;;;;;14.50;10.93;;;;;;;12.22;75.42;100573.91;5039338;28;20124;-81
2022/04/23 05:44:02;;;;;;;14.05;10.70;;;;;;;12.18;75.52;100575.47;5048600;28;20477;-81
2022/04/23 05:46:28;;;;;;;14.00;10.40;;;;;;;12.16;75.17;100560.53;5031660;28;20463;-81
2022/04/23 05:48:55;;;;;;;14.07;11.05;;;;;;;12.16;75.63;100579.75;5030297;28;20041;-81
2022/04/23 05:51:21;;;;;;;13.93;10.98;;;;;;;12.17;75.64;100570.16;5031570;28;20106;-81
2022/04/23 05:53:46;;;;;;;13.75;10.23;;;;;;;12.20;75.37;100568.59;5039918;28;20061;-81
2022/04/23 05:56:12;;;;;;;14.48;10.73;;;;;;;12.11;75.59;100556.84;5033141;28;20044;-81
2022/04/23 05:58:38;;;;;;;15.63;10.90;;;;;;;12.15;75.48;100570.13;5032678;28;20105;-81
2022/04/23 06:01:04;;;;;;;15.02;10.80;;;;;;;12.09;75.75;100555.88;5047680;28;20445;-81
2022/04/23 06:03:30;;;;;;;15.65;10.75;;;;;;;12.09;75.78;100574.19;5030732;28;20056;-81
2022/04/23 06:05:56;;;;;;;12.30;9.77;;;;;;;12.02;75.40;100560.84;5050092;28;20032;-81
2022/04/23 06:08:22;;;;;;;14.15;10.73;;;;;;;12.07;75.56;100568.00;5047697;28;20025;-81
2022/04/23 06:10:48;;;;;;;15.32;11.18;;;;;;;12.13;75.60;100578.75;5049142;28;20033;-82
2022/04/23 06:13:14;;;;;;;15.57;11.48;;;;;;;12.15;75.71;100583.22;5046378;28;20029;-81
2022/04/23 06:15:39;;;;;;;14.13;10.73;;;;;;;12.14;75.51;100572.66;5050899;28;20044;-82
2022/04/23 06:18:05;;;;;;;14.80;10.45;;;;;;;11.85;75.30;100524.22;5050777;28;20544;-82
2022/04/23 06:20:31;;;;;;;13.45;10.40;;;;;;;11.81;75.52;100513.63;5032627;28;20029;-81
2022/04/23 06:22:56;;;;;;;15.73;11.00;;;;;;;12.26;75.33;100573.22;5032225;28;20090;-81
2022/04/23 06:25:22;;;;;;;17.35;11.40;;;;;;;12.26;76.02;100578.44;5029477;28;20460;-81
2022/04/23 06:27:50;;;;;;;18.30;11.88;;;;;;;12.30;75.22;100563.78;5017950;28;20032;-80
2022/04/23 06:30:16;;;;;;;16.23;11.10;;;;;;;12.39;75.43;100567.69;5043694;28;20080;-79
2022/04/23 06:32:42;;;;;;;18.10;11.07;;;;;;;12.31;75.38;100566.44;5035892;28;20092;-79
2022/04/23 06:35:08;;;;;;;16.48;10.82;;;;;;;12.28;75.43;100576.81;5031570;28;20037;-80
2022/04/23 06:37:40;;;;;;;;;;;;;;;12.36;75.17;100579.72;5048185;28;20025;-79
2022/04/23 06:40:07;;;;;;;17.33;10.63;;;;;;;12.33;75.28;100577.00;5030834;28;19919;-79
2022/04/23 06:42:33;;;;;;;15.07;10.57;;;;;;;12.33;75.14;100577.00;5043634;28;20438;-79
2022/04/23 06:44:59;;;;;;;15.20;11.13;;;;;;;12.33;75.30;100582.22;5050682;28;20037;-79
2022/04/23 06:47:24;;;;;;;14.52;10.68;;;;;;;12.35;75.10;100584.09;5044423;28;20025;-78
2022/04/23 06:49:50;;;;;;;15.88;10.93;;;;;;;12.34;75.45;100584.00;5048901;28;20029;-80
2022/04/23 06:52:15;;;;;;;13.95;10.77;;;;;;;12.30;75.47;100582.13;5036178;28;20426;-80
2022/04/23 06:54:41;;;;;;;16.10;10.63;;;;;;;12.32;75.07;100583.97;5054074;28;20136;-79
2022/04/23 06:57:07;;;;;;;14.70;10.20;;;;;;;12.39;75.20;100586.00;5053778;28;20059;-79
2022/04/23 06:59:33;;;;;;;15.35;11.15;;;;;;;12.38;75.23;100588.56;5019663;28;20443;-80
2022/04/23 07:02:02;;;;;;;13.48;10.25;;;;;;;12.21;75.36;100564.25;5053899;28;20455;-79
2022/04/23 07:04:29;;;;;;;13.32;10.25;;;;;;;12.37;75.28;100581.53;5053724;28;20563;-79
2022/04/23 07:06:55;;;;;;;13.52;10.25;;;;;;;12.38;75.02;100581.63;5041402;28;20383;-80
2022/04/23 07:09:20;;;;;;;13.68;10.18;;;;;;;12.42;75.26;100575.69;5042439;28;20032;-79
2022/04/23 07:11:47;;;;;;;17.23;10.15;;;;;;;12.40;74.97;100581.66;5066715;28;20036;-80
2022/04/23 07:14:13;;;;;;;12.02;9.88;;;;;;;12.37;75.01;100573.69;5056625;28;20079;-78
2022/04/23 07:16:40;;;;;;;13.07;9.93;;;;;;;12.45;74.98;100579.25;5053816;28;20032;-78
2022/04/23 07:19:07;;;;;;;14.63;10.32;;;;;;;12.41;74.90;100581.72;5048963;28;20108;-79
2022/04/23 07:21:34;;;;;;;16.40;10.10;;;;;;;12.45;74.95;100582.78;5033568;28;20109;-79
2022/04/23 07:24:03;;;;;;;14.10;9.80;;;;;;;12.44;74.89;100583.59;5051259;28;20139;-80
2022/04/23 07:26:31;;;;;;;13.60;9.82;;;;;;;12.38;75.10;100572.84;5053057;28;20032;-80
2022/04/23 07:28:57;;;;;;;12.73;10.35;;;;;;;12.50;75.03;100590.81;5033383;28;20436;-80
2022/04/23 07:31:23;;;;;;;12.23;9.77;;;;;;;12.49;74.91;100586.41;5040171;28;20108;-80
2022/04/23 07:39:18;;;;;;;12.95;9.95;;;;;;;12.55;74.88;100581.44;5051883;28;20405;-79
2022/04/23 07:41:46;;;;;;;12.60;9.80;;;;;;;12.58;74.55;100578.94;5053056;28;20029;-80
2022/04/23 07:44:12;;;;;;;12.73;9.80;;;;;;;12.57;74.67;100582.38;5038207;28;20500;-79
2022/04/23 07:46:39;;;;;;;12.02;9.50;;;;;;;12.63;74.39;100587.88;5050576;28;20037;-80
2022/04/23 07:49:05;;;;;;;13.43;9.48;;;;;;;12.68;74.42;100589.00;5049532;28;20025;-80
2022/04/23 07:51:31;;;;;;;11.82;9.55;;;;;;;12.67;74.21;100584.56;5053154;28;20032;-80
2022/04/23 07:53:56;;;;;;;13.02;9.63;;;;;;;12.66;74.54;100597.59;5049831;28;20082;-80
2022/04/23 07:56:22;;;;;;;13.18;9.23;;;;;;;12.66;74.67;100582.81;5050522;28;20033;-80
2022/04/23 07:58:48;;;;;;;12.98;9.85;;;;;;;12.68;74.37;100585.47;5051397;28;20406;-79
2022/04/23 08:01:14;;;;;;;13.10;9.77;;;;;;;12.68;74.40;100585.47;5051356;28;20059;-81
2022/04/23 08:03:41;;;;;;;13.18;9.50;;;;;;;12.72;74.72;100597.84;5051640;28;20025;-80
2022/04/23 08:06:10;;;;;;;13.32;9.88;;;;;;;12.73;74.54;100595.31;5051239;28;20029;-80
2022/04/23 08:08:36;;;;;;;13.30;9.88;;;;;;;12.71;74.59;100590.84;5034387;28;20065;-80
2022/04/23 08:11:03;;;;;;;12.18;9.70;;;;;;;12.76;74.40;100594.53;5032653;28;20107;-80
2022/04/23 08:13:28;;;;;;;13.25;9.70;;;;;;;12.74;74.56;100598.81;5032899;28;20029;-80
2022/04/23 08:15:54;;;;;;;13.75;10.20;;;;;;;12.75;74.39;100590.16;5050120;28;20040;-80
2022/04/23 08:18:19;;;;;;;13.43;9.73;;;;;;;12.71;74.42;100585.59;5066854;28;20025;-80
2022/04/23 08:20:45;;;;;;;13.70;10.25;;;;;;;12.75;74.45;100592.78;5071414;28;20078;-80
2022/04/23 08:23:11;;;;;;;12.45;9.75;;;;;;;12.78;74.52;100596.44;5049738;28;20028;-79
2022/04/23 08:25:37;;;;;;;13.52;10.00;;;;;;;12.83;74.11;100597.50;5032253;28;20029;-80
2022/04/23 08:30:47;;;;;;;14.45;10.27;;;;;;;12.76;74.67;100586.69;5037006;28;20075;-79
2022/04/23 08:33:13;;;;;;;13.07;9.68;;;;;;;12.81;74.17;100595.66;5051752;28;20049;-80
2022/04/23 08:35:39;;;;;;;14.13;9.93;;;;;;;12.80;74.40;100599.09;5051628;28;20028;-80
2022/04/23 08:38:06;;;;;;;14.05;10.52;;;;;;;12.87;74.30;100610.72;5019787;28;20035;-80
2022/04/23 08:40:36;;;;;;;14.15;10.57;;;;;;;12.86;74.35;100612.44;5048225;28;20033;-80
2022/04/23 08:43:02;;;;;;;16.25;10.43;;;;;;;12.83;74.84;100607.09;5031521;28;20031;-80
2022/04/23 08:45:30;;;;;;;14.73;11.02;;;;;;;12.73;74.47;100582.22;5031989;28;20021;-80
2022/04/23 08:47:58;;;;;;;15.02;11.32;;;;;;;12.83;74.50;100594.00;5031471;28;20102;-80
2022/04/23 08:50:26;;;;;;;14.80;10.63;;;;;;;12.91;74.15;100595.22;5050178;28;20511;-80
2022/04/23 08:52:54;;;;;;;15.43;10.50;;;;;;;12.94;74.09;100592.69;5032286;28;20464;-81
2022/04/23 08:55:20;;;;;;;15.80;10.98;;;;;;;12.94;74.44;100597.94;5030890;28;20049;-80
2022/04/23 08:57:45;;;;;;;;;;;;;;;12.99;74.42;100599.00;5030472;28;20060;-80
2022/04/23 09:00:14;;;;;;;15.05;10.75;;;;;;;12.99;74.58;100599.00;5048810;28;19955;-80
2022/04/23 09:02:41;;;;;;;15.73;11.15;;;;;;;12.92;74.50;100585.63;5048706;28;20102;-80
2022/04/23 09:05:07;;;;;;;16.30;11.38;;;;;;;12.98;74.56;100586.75;5030048;28;20100;-81
2022/04/23 09:07:33;;;;;;;16.45;10.90;;;;;;;12.95;74.49;100591.88;5031684;28;20032;-80
2022/04/23 09:09:59;;;;;;;15.75;11.57;;;;;;;12.99;74.48;100588.53;5049226;28;20025;-79
2022/04/23 09:12:26;;;;;;;15.73;10.55;;;;;;;13.02;74.25;100593.03;5050041;28;20391;-79
2022/04/23 09:14:54;;;;;;;13.63;10.93;;;;;;;13.01;74.25;100597.34;5044507;28;20025;-79
2022/04/23 09:25:47;;;;;;;17.02;11.25;;;;;;;12.97;74.27;100590.19;5050542;28;20098;-81
2022/04/23 09:28:16;;;;;;;15.27;11.40;;;;;;;13.07;74.50;100593.22;5051274;28;20017;-81
2022/04/23 09:30:42;;;;;;;15.30;10.70;;;;;;;13.02;74.45;100583.44;5049907;28;20553;-81
2022/04/23 09:33:07;;;;;;;;;;;;;;;13.10;74.09;100596.88;5047214;28;20052;-81
2022/04/23 09:35:33;;;;;;;14.80;10.52;;;;;;;13.04;74.61;100589.63;5032631;28;19959;-80
2022/04/23 09:38:15;;;;;;;15.05;10.38;;;;;;;13.02;74.53;100588.69;5046930;28;20028;-80
2022/04/23 09:40:41;;;;;;;14.57;10.60;;;;;;;13.05;74.47;100598.38;5049472;28;20036;-79
2022/04/23 09:43:09;;;;;;;15.23;10.05;;;;;;;13.06;74.78;100589.69;5031026;28;20025;-80
2022/04/23 09:45:40;;;;;;;13.50;10.63;;;;;;;13.08;74.41;100589.75;5038689;28;20108;-80
2022/04/23 09:48:05;;;;;;;16.55;11.05;;;;;;;13.07;74.53;100595.84;5051003;28;21246;-80
2022/04/23 09:50:38;;;;;;;15.00;10.63;;;;;;;13.02;74.23;100574.69;5051187;28;20082;-80
2022/04/23 09:53:10;;;;;;;13.63;10.20;;;;;;;13.12;74.50;100587.34;5033103;28;20076;-80
2022/04/23 09:55:36;;;;;;;15.13;11.13;;;;;;;13.12;74.48;100575.94;5033353;28;20025;-81
2022/04/23 09:58:06;;;;;;;13.80;10.32;;;;;;;13.08;74.47;100572.31;5033116;28;20504;-81
2022/04/23 10:00:37;;;;;;;15.32;11.27;;;;;;;13.13;74.78;100572.50;5050585;28;20029;-81
2022/04/23 10:03:06;;;;;;;13.90;10.73;;;;;;;13.13;74.81;100575.13;5050888;28;20033;-80
2022/04/23 10:05:36;;;;;;;16.25;10.52;;;;;;;13.08;74.62;100561.81;5050066;28;20036;-81
2022/04/23 10:08:05;;;;;;;15.40;10.93;;;;;;;13.15;74.62;100569.09;5057350;28;20048;-81
2022/04/23 10:10:33;;;;;;;15.43;10.68;;;;;;;13.15;74.77;100565.59;5070985;28;20032;-81
2022/04/23 10:13:00;;;;;;;15.13;10.57;;;;;;;13.15;74.39;100568.22;5056081;28;20025;-81
2022/04/23 10:15:26;;;;;;;16.60;10.85;;;;;;;13.21;74.37;100571.06;5049927;28;20083;-80
2022/04/23 10:17:52;;;;;;;14.68;10.98;;;;;;;13.23;74.46;100567.69;5032660;28;20040;-82
2022/04/23 10:20:17;;;;;;;15.23;10.82;;;;;;;13.13;74.67;100544.53;5032868;28;20036;-81
2022/04/23 10:22:52;;;;;;;14.10;10.25;;;;;;;13.22;74.57;100567.59;5034064;28;20116;-80
2022/04/23 10:25:30;;;;;;;13.15;10.20;;;;;;;13.17;74.28;100543.84;5054057;28;20037;-81
2022/04/23 10:27:57;;;;;;;17.08;11.10;;;;;;;13.24;74.53;100558.97;5054324;28;20033;-81
2022/04/23 10:30:27;;;;;;;14.30;10.52;;;;;;;13.16;74.83;100541.13;5047880;28;20045;-81
2022/04/23 10:32:53;;;;;;;13.77;10.35;;;;;;;13.26;74.65;100563.38;5074551;28;20028;-82
2022/04/23 10:35:19;;;;;;;13.82;10.82;;;;;;;13.29;74.46;100559.16;5054149;28;20029;-81
2022/04/23 10:37:48;;;;;;;14.80;10.93;;;;;;;13.28;74.39;100551.22;5052374;28;20459;-81
2022/04/23 10:40:18;;;;;;;14.02;10.80;;;;;;;13.27;74.48;100554.66;5036201;28;20029;-80
2022/04/23 10:43:09;;;;;;;15.48;10.93;;;;;;;13.31;74.42;100546.13;5052687;28;20182;-81
2022/04/23 10:45:38;;;;;;;14.43;10.38;;;;;;;13.26;74.65;100538.06;5054363;28;20036;-81
2022/04/23 10:48:23;;;;;;;12.75;9.90;;;;;;;13.32;74.41;100556.69;5036672;28;20612;-80
2022/04/23 10:51:15;;;;;;;13.57;9.75;;;;;;;13.35;74.38;100551.53;5053847;28;20533;-81
2022/04/23 10:53:43;;;;;;;13.98;10.52;;;;;;;13.35;74.40;100551.53;5053282;28;20119;-80
2022/04/23 10:56:17;;;;;;;14.45;10.38;;;;;;;13.32;74.53;100551.44;5054166;28;20071;-80
2022/04/23 10:58:43;;;;;;;14.55;10.52;;;;;;;13.33;74.68;100557.56;5052174;28;20082;-81
2022/04/23 11:01:27;;;;;;;13.40;10.35;;;;;;;13.32;74.66;100546.19;5033861;28;20024;-81
2022/04/23 11:03:52;;;;;;;13.25;9.90;;;;;;;13.39;74.31;100563.94;5052569;28;20102;-81
2022/04/23 11:12:22;;;;;;;13.52;10.10;;;;;;;13.34;74.43;100549.78;5045214;28;20060;-81
2022/04/23 11:14:49;;;;;;;12.75;9.60;;;;;;;13.32;74.50;100537.44;5053258;28;20047;-80
2022/04/23 11:17:44;;;;;;;13.45;10.25;;;;;;;13.37;74.46;100551.63;5034954;28;20091;-81
2022/04/23 11:20:13;;;;;;;12.48;9.70;;;;;;;13.35;74.68;100535.81;5044364;28;20056;-81
2022/04/23 11:22:40;;;;;;;13.30;10.07;;;;;;;13.36;74.50;100537.63;5052764;28;20037;-80
2022/04/23 11:25:06;;;;;;;14.05;10.00;;;;;;;13.43;74.44;100552.75;5052587;28;20406;-80
2022/04/23 11:27:36;;;;;;;13.98;9.63;;;;;;;13.39;74.50;100535.09;5053516;28;20060;-81
2022/04/23 11:30:04;;;;;;;13.50;9.63;;;;;;;13.41;74.45;100528.19;5036133;28;20023;-80
2022/04/23 11:32:31;;;;;;;12.95;9.93;;;;;;;13.45;74.28;100534.44;5019221;28;20401;-80
2022/04/23 11:35:00;;;;;;;12.45;9.30;;;;;;;13.49;74.62;100536.34;5034076;28;20025;-81
2022/04/23 11:37:29;;;;;;;12.65;9.73;;;;;;;13.52;74.45;100531.22;5052969;28;20044;-81